sensor_id;sensor_type;location;lat;lon;timestamp;P1;durP1;ratioP1;P2;durP2;ratioP2
70967;SDS011;58629;48.808;8.820;2022-11-21T00:00:44;0.30;;;0.00;;
70967;SDS011;58629;48.808;8.820;2022-11-21T00:03:11;0.80;;;0.00;;
70967;SDS011;58629;48.808;8.820;2022-11-21T00:05:37;0.30;;;0.03;;
70967;SDS011;58629;48.808;8.820;2022-11-21T00:08:08;0.10;;;0.00;;
70967;SDS011;58629;48.808;8.820;2022-11-21T00:10:34;0.40;;;0.10;;
70967;SDS011;58629;48.808;8.820;2022-11-21T00:13:01;0.90;;;0.00;;
70967;SDS011;58629;48.808;8.820;2022-11-21T00:15:26;0.97;;;0.00;;
70967;SDS011;58629;48.808;8.820;2022-11-21T00:17:52;1.80;;;0.20;;
70967;SDS011;58629;48.808;8.820;2022-11-21T00:20:18;0.87;;;0.07;;
70967;SDS011;58629;48.808;8.820;2022-11-21T00:22:44;1.38;;;0.10;;
70967;SDS011;58629;48.808;8.820;2022-11-21T00:25:10;0.77;;;0.10;;
70967;SDS011;58629;48.808;8.820;2022-11-21T00:27:35;0.90;;;0.10;;
70967;SDS011;58629;48.808;8.820;2022-11-21T00:30:00;0.53;;;0.07;;
70967;SDS011;58629;48.808;8.820;2022-11-21T00:32:26;0.93;;;0.00;;
70967;SDS011;58629;48.808;8.820;2022-11-21T00:34:51;0.83;;;0.10;;
70967;SDS011;58629;48.808;8.820;2022-11-21T00:37:16;1.53;;;0.03;;
70967;SDS011;58629;48.808;8.820;2022-11-21T00:39:41;1.40;;;0.00;;
70967;SDS011;58629;48.808;8.820;2022-11-21T00:42:07;0.97;;;0.03;;
70967;SDS011;58629;48.808;8.820;2022-11-21T00:44:32;0.17;;;0.00;;
70967;SDS011;58629;48.808;8.820;2022-11-21T00:46:57;0.47;;;0.00;;
70967;SDS011;58629;48.808;8.820;2022-11-21T00:49:23;0.63;;;0.00;;
70967;SDS011;58629;48.808;8.820;2022-11-21T00:51:48;0.37;;;0.10;;
70967;SDS011;58629;48.808;8.820;2022-11-21T00:54:13;0.33;;;0.10;;
70967;SDS011;58629;48.808;8.820;2022-11-21T00:56:38;0.83;;;0.20;;
70967;SDS011;58629;48.808;8.820;2022-11-21T00:59:04;0.40;;;0.10;;
70967;SDS011;58629;48.808;8.820;2022-11-21T01:01:29;0.50;;;0.20;;
70967;SDS011;58629;48.808;8.820;2022-11-21T01:03:54;0.77;;;0.20;;
70967;SDS011;58629;48.808;8.820;2022-11-21T01:06:22;1.20;;;0.65;;
70967;SDS011;58629;48.808;8.820;2022-11-21T01:08:47;1.40;;;1.00;;
70967;SDS011;58629;48.808;8.820;2022-11-21T01:11:13;1.33;;;0.90;;
70967;SDS011;58629;48.808;8.820;2022-11-21T01:13:40;0.60;;;0.30;;
70967;SDS011;58629;48.808;8.820;2022-11-21T01:16:10;2.03;;;0.20;;
70967;SDS011;58629;48.808;8.820;2022-11-21T01:18:40;0.77;;;0.10;;
70967;SDS011;58629;48.808;8.820;2022-11-21T01:21:07;2.10;;;0.38;;
70967;SDS011;58629;48.808;8.820;2022-11-21T01:23:53;2.78;;;0.30;;
70967;SDS011;58629;48.808;8.820;2022-11-21T01:26:20;1.17;;;0.23;;
70967;SDS011;58629;48.808;8.820;2022-11-21T01:28:50;2.28;;;0.10;;
70967;SDS011;58629;48.808;8.820;2022-11-21T01:31:23;1.50;;;0.28;;
70967;SDS011;58629;48.808;8.820;2022-11-21T01:33:51;2.47;;;0.05;;
70967;SDS011;58629;48.808;8.820;2022-11-21T01:36:20;0.45;;;0.05;;
70967;SDS011;58629;48.808;8.820;2022-11-21T01:38:49;1.03;;;0.10;;
70967;SDS011;58629;48.808;8.820;2022-11-21T01:41:19;2.03;;;0.40;;
70967;SDS011;58629;48.808;8.820;2022-11-21T01:43:48;0.90;;;0.10;;
70967;SDS011;58629;48.808;8.820;2022-11-21T01:46:15;1.23;;;0.10;;
70967;SDS011;58629;48.808;8.820;2022-11-21T01:48:54;0.73;;;0.00;;
70967;SDS011;58629;48.808;8.820;2022-11-21T01:51:25;1.38;;;0.10;;
70967;SDS011;58629;48.808;8.820;2022-11-21T01:56:27;0.52;;;0.00;;
70967;SDS011;58629;48.808;8.820;2022-11-21T01:58:58;0.20;;;0.00;;
70967;SDS011;58629;48.808;8.820;2022-11-21T02:01:27;0.53;;;0.03;;
70967;SDS011;58629;48.808;8.820;2022-11-21T02:03:53;0.68;;;0.10;;
70967;SDS011;58629;48.808;8.820;2022-11-21T02:06:20;0.22;;;0.10;;
70967;SDS011;58629;48.808;8.820;2022-11-21T02:08:47;1.92;;;0.20;;
70967;SDS011;58629;48.808;8.820;2022-11-21T02:11:25;1.17;;;0.10;;
70967;SDS011;58629;48.808;8.820;2022-11-21T02:13:52;2.00;;;0.35;;
70967;SDS011;58629;48.808;8.820;2022-11-21T02:16:17;0.33;;;0.03;;
70967;SDS011;58629;48.808;8.820;2022-11-21T02:18:42;0.73;;;0.10;;
70967;SDS011;58629;48.808;8.820;2022-11-21T02:21:10;1.00;;;0.20;;
70967;SDS011;58629;48.808;8.820;2022-11-21T02:26:52;0.50;;;0.10;;
70967;SDS011;58629;48.808;8.820;2022-11-21T02:29:18;0.80;;;0.03;;
70967;SDS011;58629;48.808;8.820;2022-11-21T02:31:43;1.30;;;0.10;;
70967;SDS011;58629;48.808;8.820;2022-11-21T02:34:08;0.20;;;0.07;;
70967;SDS011;58629;48.808;8.820;2022-11-21T02:39:05;1.27;;;0.10;;
70967;SDS011;58629;48.808;8.820;2022-11-21T02:41:32;0.25;;;0.00;;
70967;SDS011;58629;48.808;8.820;2022-11-21T02:44:01;0.23;;;0.00;;
70967;SDS011;58629;48.808;8.820;2022-11-21T02:46:33;0.20;;;0.00;;
70967;SDS011;58629;48.808;8.820;2022-11-21T02:48:59;0.65;;;0.00;;
70967;SDS011;58629;48.808;8.820;2022-11-21T02:51:30;0.30;;;0.10;;
70967;SDS011;58629;48.808;8.820;2022-11-21T02:53:55;0.10;;;0.00;;
70967;SDS011;58629;48.808;8.820;2022-11-21T02:56:20;0.10;;;0.00;;
70967;SDS011;58629;48.808;8.820;2022-11-21T02:58:46;0.47;;;0.00;;
70967;SDS011;58629;48.808;8.820;2022-11-21T03:01:11;0.30;;;0.00;;
70967;SDS011;58629;48.808;8.820;2022-11-21T03:03:36;0.23;;;0.00;;
70967;SDS011;58629;48.808;8.820;2022-11-21T03:06:02;0.87;;;0.00;;
70967;SDS011;58629;48.808;8.820;2022-11-21T03:08:27;0.17;;;0.00;;
70967;SDS011;58629;48.808;8.820;2022-11-21T03:10:52;0.10;;;0.00;;
70967;SDS011;58629;48.808;8.820;2022-11-21T03:13:17;0.10;;;0.00;;
70967;SDS011;58629;48.808;8.820;2022-11-21T03:15:43;0.00;;;0.00;;
70967;SDS011;58629;48.808;8.820;2022-11-21T03:18:08;0.00;;;0.00;;
70967;SDS011;58629;48.808;8.820;2022-11-21T03:20:33;0.50;;;0.00;;
70967;SDS011;58629;48.808;8.820;2022-11-21T03:22:59;0.20;;;0.00;;
70967;SDS011;58629;48.808;8.820;2022-11-21T03:25:24;0.10;;;0.00;;
70967;SDS011;58629;48.808;8.820;2022-11-21T03:27:51;0.40;;;0.00;;
70967;SDS011;58629;48.808;8.820;2022-11-21T03:30:17;0.60;;;0.00;;
70967;SDS011;58629;48.808;8.820;2022-11-21T03:32:44;0.15;;;0.00;;
70967;SDS011;58629;48.808;8.820;2022-11-21T03:35:09;0.20;;;0.00;;
70967;SDS011;58629;48.808;8.820;2022-11-21T03:37:34;1.60;;;0.07;;
70967;SDS011;58629;48.808;8.820;2022-11-21T03:40:00;0.17;;;0.00;;
70967;SDS011;58629;48.808;8.820;2022-11-21T03:42:25;0.40;;;0.10;;
70967;SDS011;58629;48.808;8.820;2022-11-21T03:44:51;2.03;;;0.30;;
70967;SDS011;58629;48.808;8.820;2022-11-21T03:47:16;0.90;;;0.30;;
70967;SDS011;58629;48.808;8.820;2022-11-21T03:49:41;1.23;;;0.30;;
70967;SDS011;58629;48.808;8.820;2022-11-21T03:52:06;1.23;;;0.20;;
70967;SDS011;58629;48.808;8.820;2022-11-21T03:54:32;2.63;;;0.38;;
70967;SDS011;58629;48.808;8.820;2022-11-21T03:56:57;1.92;;;0.43;;
70967;SDS011;58629;48.808;8.820;2022-11-21T03:59:22;1.23;;;0.40;;
70967;SDS011;58629;48.808;8.820;2022-11-21T04:01:47;1.63;;;0.30;;
70967;SDS011;58629;48.808;8.820;2022-11-21T04:04:13;0.83;;;0.33;;
70967;SDS011;58629;48.808;8.820;2022-11-21T04:06:38;3.23;;;0.30;;
70967;SDS011;58629;48.808;8.820;2022-11-21T04:09:03;1.07;;;0.30;;
70967;SDS011;58629;48.808;8.820;2022-11-21T04:11:28;2.57;;;0.47;;
70967;SDS011;58629;48.808;8.820;2022-11-21T04:13:54;1.80;;;0.30;;
70967;SDS011;58629;48.808;8.820;2022-11-21T04:16:19;0.60;;;0.17;;
70967;SDS011;58629;48.808;8.820;2022-11-21T04:18:44;0.63;;;0.20;;
70967;SDS011;58629;48.808;8.820;2022-11-21T04:21:09;1.10;;;0.20;;
70967;SDS011;58629;48.808;8.820;2022-11-21T04:23:35;1.50;;;0.30;;
70967;SDS011;58629;48.808;8.820;2022-11-21T04:26:00;2.07;;;0.37;;
70967;SDS011;58629;48.808;8.820;2022-11-21T04:28:26;1.93;;;0.50;;
70967;SDS011;58629;48.808;8.820;2022-11-21T04:30:51;1.27;;;0.50;;
70967;SDS011;58629;48.808;8.820;2022-11-21T04:33:16;1.58;;;0.52;;
70967;SDS011;58629;48.808;8.820;2022-11-21T04:35:43;1.08;;;0.60;;
70967;SDS011;58629;48.808;8.820;2022-11-21T04:38:09;1.85;;;0.60;;
70967;SDS011;58629;48.808;8.820;2022-11-21T04:40:34;2.08;;;0.70;;
70967;SDS011;58629;48.808;8.820;2022-11-21T04:43:00;2.57;;;0.60;;
70967;SDS011;58629;48.808;8.820;2022-11-21T04:45:25;2.50;;;0.70;;
70967;SDS011;58629;48.808;8.820;2022-11-21T04:47:50;2.57;;;0.80;;
70967;SDS011;58629;48.808;8.820;2022-11-21T04:50:16;2.83;;;0.80;;
70967;SDS011;58629;48.808;8.820;2022-11-21T04:52:47;2.20;;;0.57;;
70967;SDS011;58629;48.808;8.820;2022-11-21T04:55:13;1.90;;;0.70;;
70967;SDS011;58629;48.808;8.820;2022-11-21T04:57:39;3.13;;;0.87;;
70967;SDS011;58629;48.808;8.820;2022-11-21T05:00:04;2.87;;;0.63;;
70967;SDS011;58629;48.808;8.820;2022-11-21T05:02:30;2.80;;;0.80;;
70967;SDS011;58629;48.808;8.820;2022-11-21T05:04:56;3.35;;;1.02;;
70967;SDS011;58629;48.808;8.820;2022-11-21T05:07:22;1.80;;;0.70;;
70967;SDS011;58629;48.808;8.820;2022-11-21T05:09:47;2.93;;;0.80;;
70967;SDS011;58629;48.808;8.820;2022-11-21T05:12:12;2.37;;;0.80;;
70967;SDS011;58629;48.808;8.820;2022-11-21T05:14:56;1.90;;;0.50;;
70967;SDS011;58629;48.808;8.820;2022-11-21T05:17:21;2.53;;;0.60;;
70967;SDS011;58629;48.808;8.820;2022-11-21T05:19:47;4.05;;;0.80;;
70967;SDS011;58629;48.808;8.820;2022-11-21T05:22:12;1.55;;;0.60;;
70967;SDS011;58629;48.808;8.820;2022-11-21T05:24:37;2.60;;;0.60;;
70967;SDS011;58629;48.808;8.820;2022-11-21T05:27:03;3.07;;;0.60;;
70967;SDS011;58629;48.808;8.820;2022-11-21T05:29:29;2.10;;;0.63;;
70967;SDS011;58629;48.808;8.820;2022-11-21T05:31:54;3.15;;;0.70;;
70967;SDS011;58629;48.808;8.820;2022-11-21T05:34:20;2.23;;;0.70;;
70967;SDS011;58629;48.808;8.820;2022-11-21T05:36:45;1.03;;;0.40;;
70967;SDS011;58629;48.808;8.820;2022-11-21T05:39:10;1.07;;;0.33;;
70967;SDS011;58629;48.808;8.820;2022-11-21T05:41:35;1.30;;;0.33;;
70967;SDS011;58629;48.808;8.820;2022-11-21T05:44:01;2.57;;;0.20;;
70967;SDS011;58629;48.808;8.820;2022-11-21T05:46:26;0.97;;;0.30;;
70967;SDS011;58629;48.808;8.820;2022-11-21T05:48:52;1.00;;;0.27;;
70967;SDS011;58629;48.808;8.820;2022-11-21T05:51:18;2.72;;;0.40;;
70967;SDS011;58629;48.808;8.820;2022-11-21T05:53:45;2.83;;;0.35;;
70967;SDS011;58629;48.808;8.820;2022-11-21T05:56:15;1.95;;;0.40;;
70967;SDS011;58629;48.808;8.820;2022-11-21T05:58:42;3.75;;;0.70;;
70967;SDS011;58629;48.808;8.820;2022-11-21T06:01:08;4.70;;;0.60;;
70967;SDS011;58629;48.808;8.820;2022-11-21T06:03:36;0.80;;;0.47;;
70967;SDS011;58629;48.808;8.820;2022-11-21T06:08:37;2.15;;;0.60;;
70967;SDS011;58629;48.808;8.820;2022-11-21T06:11:05;3.30;;;0.90;;
70967;SDS011;58629;48.808;8.820;2022-11-21T06:13:31;3.70;;;0.70;;
70967;SDS011;58629;48.808;8.820;2022-11-21T06:18:29;5.35;;;0.95;;
70967;SDS011;58629;48.808;8.820;2022-11-21T06:21:00;4.65;;;0.98;;
70967;SDS011;58629;48.808;8.820;2022-11-21T06:23:26;2.83;;;0.80;;
70967;SDS011;58629;48.808;8.820;2022-11-21T06:25:57;2.22;;;1.00;;
70967;SDS011;58629;48.808;8.820;2022-11-21T06:28:24;4.20;;;0.90;;
70967;SDS011;58629;48.808;8.820;2022-11-21T06:30:50;2.63;;;0.88;;
70967;SDS011;58629;48.808;8.820;2022-11-21T06:33:16;5.18;;;1.20;;
70967;SDS011;58629;48.808;8.820;2022-11-21T06:35:42;4.07;;;1.08;;
70967;SDS011;58629;48.808;8.820;2022-11-21T06:38:07;2.67;;;0.90;;
70967;SDS011;58629;48.808;8.820;2022-11-21T06:40:32;5.65;;;3.05;;
70967;SDS011;58629;48.808;8.820;2022-11-21T06:42:58;3.83;;;1.10;;
70967;SDS011;58629;48.808;8.820;2022-11-21T06:45:23;3.00;;;0.87;;
70967;SDS011;58629;48.808;8.820;2022-11-21T06:47:48;3.80;;;1.10;;
70967;SDS011;58629;48.808;8.820;2022-11-21T06:50:13;2.27;;;0.80;;
70967;SDS011;58629;48.808;8.820;2022-11-21T06:52:39;4.80;;;1.00;;
70967;SDS011;58629;48.808;8.820;2022-11-21T06:55:05;3.03;;;0.80;;
70967;SDS011;58629;48.808;8.820;2022-11-21T06:57:30;2.92;;;0.90;;
70967;SDS011;58629;48.808;8.820;2022-11-21T06:59:56;3.97;;;0.80;;
70967;SDS011;58629;48.808;8.820;2022-11-21T07:02:22;6.10;;;1.20;;
70967;SDS011;58629;48.808;8.820;2022-11-21T07:04:47;4.70;;;1.23;;
70967;SDS011;58629;48.808;8.820;2022-11-21T07:07:12;2.40;;;0.90;;
70967;SDS011;58629;48.808;8.820;2022-11-21T07:09:37;2.20;;;0.87;;
70967;SDS011;58629;48.808;8.820;2022-11-21T07:12:03;2.87;;;0.90;;
70967;SDS011;58629;48.808;8.820;2022-11-21T07:14:47;4.00;;;0.90;;
70967;SDS011;58629;48.808;8.820;2022-11-21T07:17:12;2.05;;;0.75;;
70967;SDS011;58629;48.808;8.820;2022-11-21T07:19:38;2.85;;;0.90;;
70967;SDS011;58629;48.808;8.820;2022-11-21T07:22:04;5.65;;;1.00;;
70967;SDS011;58629;48.808;8.820;2022-11-21T07:24:30;1.60;;;0.70;;
70967;SDS011;58629;48.808;8.820;2022-11-21T07:26:55;3.10;;;0.80;;
70967;SDS011;58629;48.808;8.820;2022-11-21T07:29:20;2.33;;;0.75;;
70967;SDS011;58629;48.808;8.820;2022-11-21T07:31:45;2.60;;;0.60;;
70967;SDS011;58629;48.808;8.820;2022-11-21T07:34:11;3.23;;;0.70;;
70967;SDS011;58629;48.808;8.820;2022-11-21T07:36:36;3.03;;;0.70;;
70967;SDS011;58629;48.808;8.820;2022-11-21T07:39:01;2.47;;;0.73;;
70967;SDS011;58629;48.808;8.820;2022-11-21T07:41:27;2.93;;;0.40;;
70967;SDS011;58629;48.808;8.820;2022-11-21T07:43:52;1.57;;;0.50;;
70967;SDS011;58629;48.808;8.820;2022-11-21T07:46:17;3.67;;;0.70;;
70967;SDS011;58629;48.808;8.820;2022-11-21T07:48:43;2.77;;;0.60;;
70967;SDS011;58629;48.808;8.820;2022-11-21T07:51:08;2.70;;;0.50;;
70967;SDS011;58629;48.808;8.820;2022-11-21T07:53:34;3.08;;;0.40;;
70967;SDS011;58629;48.808;8.820;2022-11-21T07:55:59;2.77;;;0.73;;
70967;SDS011;58629;48.808;8.820;2022-11-21T07:58:24;3.90;;;0.80;;
70967;SDS011;58629;48.808;8.820;2022-11-21T08:00:50;1.03;;;0.30;;
70967;SDS011;58629;48.808;8.820;2022-11-21T08:03:15;2.10;;;0.63;;
70967;SDS011;58629;48.808;8.820;2022-11-21T08:05:41;0.90;;;0.40;;
70967;SDS011;58629;48.808;8.820;2022-11-21T08:08:07;3.53;;;0.70;;
70967;SDS011;58629;48.808;8.820;2022-11-21T08:10:37;3.83;;;0.60;;
70967;SDS011;58629;48.808;8.820;2022-11-21T08:13:04;1.83;;;0.60;;
70967;SDS011;58629;48.808;8.820;2022-11-21T08:15:29;2.63;;;0.60;;
70967;SDS011;58629;48.808;8.820;2022-11-21T08:17:55;2.87;;;0.73;;
70967;SDS011;58629;48.808;8.820;2022-11-21T08:20:20;4.00;;;0.67;;
70967;SDS011;58629;48.808;8.820;2022-11-21T08:22:45;3.63;;;0.83;;
70967;SDS011;58629;48.808;8.820;2022-11-21T08:25:11;2.27;;;0.50;;
70967;SDS011;58629;48.808;8.820;2022-11-21T08:27:37;1.33;;;0.40;;
70967;SDS011;58629;48.808;8.820;2022-11-21T08:30:06;2.70;;;0.68;;
70967;SDS011;58629;48.808;8.820;2022-11-21T08:32:33;1.88;;;0.57;;
70967;SDS011;58629;48.808;8.820;2022-11-21T08:34:58;3.03;;;0.80;;
70967;SDS011;58629;48.808;8.820;2022-11-21T08:37:25;3.17;;;0.50;;
70967;SDS011;58629;48.808;8.820;2022-11-21T08:39:52;2.78;;;0.73;;
70967;SDS011;58629;48.808;8.820;2022-11-21T08:42:17;3.03;;;0.80;;
70967;SDS011;58629;48.808;8.820;2022-11-21T08:44:42;3.93;;;0.80;;
70967;SDS011;58629;48.808;8.820;2022-11-21T08:47:08;7.07;;;0.97;;
70967;SDS011;58629;48.808;8.820;2022-11-21T08:49:33;2.92;;;0.90;;
70967;SDS011;58629;48.808;8.820;2022-11-21T08:51:59;3.25;;;0.60;;
70967;SDS011;58629;48.808;8.820;2022-11-21T08:54:25;3.57;;;0.57;;
70967;SDS011;58629;48.808;8.820;2022-11-21T08:56:50;4.40;;;0.80;;
70967;SDS011;58629;48.808;8.820;2022-11-21T08:59:16;1.10;;;0.40;;
70967;SDS011;58629;48.808;8.820;2022-11-21T09:01:41;2.75;;;0.52;;
70967;SDS011;58629;48.808;8.820;2022-11-21T09:04:07;2.83;;;0.63;;
70967;SDS011;58629;48.808;8.820;2022-11-21T09:06:33;1.88;;;0.60;;
70967;SDS011;58629;48.808;8.820;2022-11-21T09:08:58;2.78;;;0.73;;
70967;SDS011;58629;48.808;8.820;2022-11-21T09:11:24;2.20;;;0.40;;
70967;SDS011;58629;48.808;8.820;2022-11-21T09:13:50;1.30;;;0.50;;
70967;SDS011;58629;48.808;8.820;2022-11-21T09:16:35;1.77;;;0.68;;
70967;SDS011;58629;48.808;8.820;2022-11-21T09:19:20;2.55;;;0.40;;
70967;SDS011;58629;48.808;8.820;2022-11-21T09:21:47;1.53;;;0.40;;
70967;SDS011;58629;48.808;8.820;2022-11-21T09:24:13;2.72;;;0.60;;
70967;SDS011;58629;48.808;8.820;2022-11-21T09:26:39;1.67;;;0.30;;
70967;SDS011;58629;48.808;8.820;2022-11-21T09:29:04;2.80;;;0.40;;
70967;SDS011;58629;48.808;8.820;2022-11-21T09:31:29;3.87;;;0.53;;
70967;SDS011;58629;48.808;8.820;2022-11-21T09:33:55;1.90;;;0.30;;
70967;SDS011;58629;48.808;8.820;2022-11-21T09:36:20;2.87;;;0.50;;
70967;SDS011;58629;48.808;8.820;2022-11-21T09:38:45;2.60;;;0.60;;
70967;SDS011;58629;48.808;8.820;2022-11-21T09:41:13;3.13;;;0.30;;
70967;SDS011;58629;48.808;8.820;2022-11-21T09:44:13;1.67;;;0.50;;
70967;SDS011;58629;48.808;8.820;2022-11-21T09:47:10;2.08;;;0.30;;
70967;SDS011;58629;48.808;8.820;2022-11-21T09:49:46;3.00;;;0.38;;
70967;SDS011;58629;48.808;8.820;2022-11-21T09:52:16;1.88;;;0.40;;
70967;SDS011;58629;48.808;8.820;2022-11-21T09:54:46;1.50;;;0.50;;
70967;SDS011;58629;48.808;8.820;2022-11-21T09:57:20;2.80;;;0.60;;
70967;SDS011;58629;48.808;8.820;2022-11-21T09:59:48;1.40;;;0.30;;
70967;SDS011;58629;48.808;8.820;2022-11-21T10:02:16;3.88;;;0.63;;
70967;SDS011;58629;48.808;8.820;2022-11-21T10:04:44;5.30;;;0.60;;
70967;SDS011;58629;48.808;8.820;2022-11-21T10:07:12;2.27;;;0.47;;
70967;SDS011;58629;48.808;8.820;2022-11-21T10:18:15;1.08;;;0.30;;
70967;SDS011;58629;48.808;8.820;2022-11-21T10:20:58;1.87;;;0.53;;
70967;SDS011;58629;48.808;8.820;2022-11-21T10:32:03;1.25;;;0.20;;
70967;SDS011;58629;48.808;8.820;2022-11-21T10:34:45;1.17;;;0.30;;
70967;SDS011;58629;48.808;8.820;2022-11-21T10:37:16;2.25;;;0.43;;
70967;SDS011;58629;48.808;8.820;2022-11-21T10:39:51;2.53;;;0.55;;
70967;SDS011;58629;48.808;8.820;2022-11-21T10:44:49;2.55;;;0.43;;
70967;SDS011;58629;48.808;8.820;2022-11-21T10:47:34;1.25;;;0.40;;
70967;SDS011;58629;48.808;8.820;2022-11-21T10:52:34;2.42;;;0.30;;
70967;SDS011;58629;48.808;8.820;2022-11-21T10:55:13;2.78;;;0.40;;
70967;SDS011;58629;48.808;8.820;2022-11-21T10:57:40;2.35;;;0.65;;
70967;SDS011;58629;48.808;8.820;2022-11-21T11:00:18;3.23;;;0.40;;
70967;SDS011;58629;48.808;8.820;2022-11-21T11:05:20;3.05;;;0.52;;
70967;SDS011;58629;48.808;8.820;2022-11-21T11:13:31;1.97;;;0.50;;
70967;SDS011;58629;48.808;8.820;2022-11-21T11:18:32;1.98;;;0.30;;
70967;SDS011;58629;48.808;8.820;2022-11-21T11:22:00;2.28;;;0.38;;
70967;SDS011;58629;48.808;8.820;2022-11-21T11:24:18;3.30;;;0.40;;
70967;SDS011;58629;48.808;8.820;2022-11-21T11:29:15;2.30;;;0.40;;
70967;SDS011;58629;48.808;8.820;2022-11-21T11:31:49;2.35;;;0.30;;
70967;SDS011;58629;48.808;8.820;2022-11-21T11:34:18;1.95;;;0.43;;
70967;SDS011;58629;48.808;8.820;2022-11-21T11:49:17;1.63;;;0.30;;
70967;SDS011;58629;48.808;8.820;2022-11-21T11:51:55;3.03;;;0.30;;
70967;SDS011;58629;48.808;8.820;2022-11-21T11:54:34;2.83;;;0.38;;
70967;SDS011;58629;48.808;8.820;2022-11-21T11:57:08;1.65;;;0.38;;
70967;SDS011;58629;48.808;8.820;2022-11-21T11:59:38;2.40;;;0.20;;
70967;SDS011;58629;48.808;8.820;2022-11-21T12:02:15;1.67;;;0.30;;
70967;SDS011;58629;48.808;8.820;2022-11-21T12:04:47;3.08;;;0.47;;
70967;SDS011;58629;48.808;8.820;2022-11-21T12:10:00;1.05;;;0.25;;
70967;SDS011;58629;48.808;8.820;2022-11-21T12:12:32;2.30;;;0.27;;
70967;SDS011;58629;48.808;8.820;2022-11-21T12:15:20;1.25;;;0.40;;
70967;SDS011;58629;48.808;8.820;2022-11-21T12:23:16;2.05;;;0.30;;
70967;SDS011;58629;48.808;8.820;2022-11-21T12:28:41;1.50;;;0.30;;
70967;SDS011;58629;48.808;8.820;2022-11-21T12:31:20;1.02;;;0.30;;
70967;SDS011;58629;48.808;8.820;2022-11-21T12:34:03;1.73;;;0.40;;
70967;SDS011;58629;48.808;8.820;2022-11-21T12:36:34;1.73;;;0.35;;
70967;SDS011;58629;48.808;8.820;2022-11-21T12:41:54;1.80;;;0.30;;
70967;SDS011;58629;48.808;8.820;2022-11-21T12:51:09;1.17;;;0.30;;
70967;SDS011;58629;48.808;8.820;2022-11-21T12:57:11;1.90;;;0.40;;
70967;SDS011;58629;48.808;8.820;2022-11-21T13:05:20;1.08;;;0.20;;
70967;SDS011;58629;48.808;8.820;2022-11-21T13:07:51;4.93;;;2.90;;
70967;SDS011;58629;48.808;8.820;2022-11-21T13:10:23;4.75;;;2.30;;
70967;SDS011;58629;48.808;8.820;2022-11-21T13:18:39;1.05;;;0.50;;
70967;SDS011;58629;48.808;8.820;2022-11-21T13:21:33;2.70;;;0.50;;
70967;SDS011;58629;48.808;8.820;2022-11-21T13:24:06;1.13;;;0.40;;
70967;SDS011;58629;48.808;8.820;2022-11-21T13:29:06;3.22;;;0.60;;
70967;SDS011;58629;48.808;8.820;2022-11-21T13:31:33;2.05;;;0.55;;
70967;SDS011;58629;48.808;8.820;2022-11-21T13:34:00;3.03;;;0.37;;
70967;SDS011;58629;48.808;8.820;2022-11-21T13:36:32;2.00;;;0.38;;
70967;SDS011;58629;48.808;8.820;2022-11-21T13:47:01;1.25;;;0.30;;
70967;SDS011;58629;48.808;8.820;2022-11-21T13:55:33;2.63;;;0.35;;
70967;SDS011;58629;48.808;8.820;2022-11-21T14:06:48;1.45;;;0.22;;
70967;SDS011;58629;48.808;8.820;2022-11-21T14:09:21;1.50;;;0.30;;
70967;SDS011;58629;48.808;8.820;2022-11-21T14:12:22;1.27;;;0.40;;
70967;SDS011;58629;48.808;8.820;2022-11-21T14:19:58;0.80;;;0.30;;
70967;SDS011;58629;48.808;8.820;2022-11-21T14:22:39;0.95;;;0.22;;
70967;SDS011;58629;48.808;8.820;2022-11-21T14:25:12;1.88;;;0.40;;
70967;SDS011;58629;48.808;8.820;2022-11-21T14:27:44;1.10;;;0.30;;
70967;SDS011;58629;48.808;8.820;2022-11-21T14:35:50;2.65;;;0.60;;
70967;SDS011;58629;48.808;8.820;2022-11-21T14:38:44;2.40;;;0.80;;
70967;SDS011;58629;48.808;8.820;2022-11-21T14:41:31;2.00;;;0.57;;
70967;SDS011;58629;48.808;8.820;2022-11-21T14:46:24;1.73;;;0.70;;
70967;SDS011;58629;48.808;8.820;2022-11-21T14:48:51;1.57;;;0.50;;
70967;SDS011;58629;48.808;8.820;2022-11-21T14:51:18;1.90;;;0.60;;
70967;SDS011;58629;48.808;8.820;2022-11-21T14:53:46;2.10;;;0.50;;
70967;SDS011;58629;48.808;8.820;2022-11-21T14:56:26;1.35;;;0.55;;
70967;SDS011;58629;48.808;8.820;2022-11-21T14:58:54;2.80;;;0.88;;
70967;SDS011;58629;48.808;8.820;2022-11-21T15:01:22;2.87;;;1.20;;
70967;SDS011;58629;48.808;8.820;2022-11-21T15:03:54;4.90;;;1.55;;
70967;SDS011;58629;48.808;8.820;2022-11-21T15:06:28;3.17;;;1.20;;
70967;SDS011;58629;48.808;8.820;2022-11-21T15:08:57;3.10;;;1.27;;
70967;SDS011;58629;48.808;8.820;2022-11-21T15:11:37;3.67;;;1.60;;
70967;SDS011;58629;48.808;8.820;2022-11-21T15:14:16;2.90;;;1.77;;
70967;SDS011;58629;48.808;8.820;2022-11-21T15:16:46;2.63;;;1.35;;
70967;SDS011;58629;48.808;8.820;2022-11-21T15:19:25;3.05;;;1.50;;
70967;SDS011;58629;48.808;8.820;2022-11-21T15:21:54;2.92;;;1.23;;
70967;SDS011;58629;48.808;8.820;2022-11-21T15:24:28;2.22;;;1.10;;
70967;SDS011;58629;48.808;8.820;2022-11-21T15:32:33;5.10;;;1.70;;
70967;SDS011;58629;48.808;8.820;2022-11-21T15:34:58;4.70;;;1.90;;
70967;SDS011;58629;48.808;8.820;2022-11-21T15:37:23;6.87;;;3.20;;
70967;SDS011;58629;48.808;8.820;2022-11-21T15:39:49;5.97;;;2.60;;
70967;SDS011;58629;48.808;8.820;2022-11-21T15:42:33;3.95;;;2.10;;
70967;SDS011;58629;48.808;8.820;2022-11-21T15:45:19;6.00;;;2.00;;
70967;SDS011;58629;48.808;8.820;2022-11-21T15:47:47;3.63;;;1.20;;
70967;SDS011;58629;48.808;8.820;2022-11-21T15:50:13;3.20;;;1.20;;
70967;SDS011;58629;48.808;8.820;2022-11-21T15:52:45;2.10;;;1.10;;
70967;SDS011;58629;48.808;8.820;2022-11-21T15:55:15;5.30;;;2.15;;
70967;SDS011;58629;48.808;8.820;2022-11-21T15:57:43;3.90;;;2.17;;
70967;SDS011;58629;48.808;8.820;2022-11-21T16:00:09;5.70;;;2.10;;
70967;SDS011;58629;48.808;8.820;2022-11-21T16:02:35;3.57;;;1.53;;
70967;SDS011;58629;48.808;8.820;2022-11-21T16:05:01;3.83;;;1.58;;
70967;SDS011;58629;48.808;8.820;2022-11-21T16:07:26;2.97;;;1.37;;
70967;SDS011;58629;48.808;8.820;2022-11-21T16:09:51;2.90;;;1.50;;
70967;SDS011;58629;48.808;8.820;2022-11-21T16:12:16;3.97;;;1.80;;
70967;SDS011;58629;48.808;8.820;2022-11-21T16:14:42;4.77;;;2.00;;
70967;SDS011;58629;48.808;8.820;2022-11-21T16:17:07;5.60;;;2.37;;
70967;SDS011;58629;48.808;8.820;2022-11-21T16:19:32;7.93;;;4.00;;
70967;SDS011;58629;48.808;8.820;2022-11-21T16:21:57;6.30;;;3.97;;
70967;SDS011;58629;48.808;8.820;2022-11-21T16:24:23;7.03;;;3.33;;
70967;SDS011;58629;48.808;8.820;2022-11-21T16:26:48;7.53;;;4.00;;
70967;SDS011;58629;48.808;8.820;2022-11-21T16:29:17;6.45;;;3.60;;
70967;SDS011;58629;48.808;8.820;2022-11-21T16:31:42;6.33;;;3.20;;
70967;SDS011;58629;48.808;8.820;2022-11-21T16:34:07;5.57;;;3.13;;
70967;SDS011;58629;48.808;8.820;2022-11-21T16:36:33;5.30;;;3.07;;
70967;SDS011;58629;48.808;8.820;2022-11-21T16:38:58;4.57;;;2.33;;
70967;SDS011;58629;48.808;8.820;2022-11-21T16:41:25;4.43;;;2.10;;
70967;SDS011;58629;48.808;8.820;2022-11-21T16:43:51;4.17;;;2.40;;
70967;SDS011;58629;48.808;8.820;2022-11-21T16:46:18;7.18;;;2.60;;
70967;SDS011;58629;48.808;8.820;2022-11-21T16:48:45;6.30;;;2.80;;
70967;SDS011;58629;48.808;8.820;2022-11-21T16:51:12;9.38;;;4.30;;
70967;SDS011;58629;48.808;8.820;2022-11-21T16:53:44;9.02;;;4.60;;
70967;SDS011;58629;48.808;8.820;2022-11-21T16:56:11;10.40;;;5.28;;
70967;SDS011;58629;48.808;8.820;2022-11-21T16:58:38;11.10;;;4.83;;
70967;SDS011;58629;48.808;8.820;2022-11-21T17:01:08;7.78;;;3.95;;
70967;SDS011;58629;48.808;8.820;2022-11-21T17:03:35;7.35;;;3.60;;
70967;SDS011;58629;48.808;8.820;2022-11-21T17:06:04;7.30;;;4.20;;
70967;SDS011;58629;48.808;8.820;2022-11-21T17:08:29;8.40;;;4.27;;
70967;SDS011;58629;48.808;8.820;2022-11-21T17:10:55;10.80;;;4.73;;
70967;SDS011;58629;48.808;8.820;2022-11-21T17:13:20;7.60;;;3.40;;
70967;SDS011;58629;48.808;8.820;2022-11-21T17:15:45;7.87;;;3.50;;